createdAt,value
2018-12-16T00:00:30.880Z,22.33
2018-12-16T00:02:59.324Z,20.77
2018-12-16T00:05:27.610Z,21.67
2018-12-16T00:07:55.867Z,21.20
2018-12-16T00:10:24.105Z,22.37
2018-12-16T00:12:52.510Z,22.17
2018-12-16T00:15:20.838Z,22.97
2018-12-16T00:17:49.172Z,23.13
2018-12-16T00:20:17.486Z,23.07
2018-12-16T00:22:45.756Z,22.00
2018-12-16T00:25:14.450Z,22.90
2018-12-16T00:27:42.704Z,23.50
2018-12-16T00:30:11.209Z,22.30
2018-12-16T00:32:39.468Z,21.40
2018-12-16T00:35:07.936Z,22.83
2018-12-16T00:37:36.281Z,24.53
2018-12-16T00:40:04.872Z,23.37
2018-12-16T00:42:33.113Z,23.10
2018-12-16T00:45:01.468Z,22.43
2018-12-16T00:47:29.722Z,22.67
2018-12-16T00:49:57.941Z,23.77
2018-12-16T00:52:26.192Z,22.50
2018-12-16T00:54:54.507Z,22.07
2018-12-16T00:57:22.897Z,23.27
2018-12-16T00:59:51.115Z,21.83
2018-12-16T01:02:24.886Z,23.23
2018-12-16T01:04:53.363Z,22.40
2018-12-16T01:07:21.589Z,21.77
2018-12-16T01:09:49.917Z,23.40
2018-12-16T01:12:18.244Z,22.17
2018-12-16T01:14:46.633Z,23.70
2018-12-16T01:17:14.975Z,23.33
2018-12-16T01:19:43.207Z,22.70
2018-12-16T01:22:11.538Z,23.87
2018-12-16T01:24:39.794Z,22.40
2018-12-16T01:27:08.009Z,23.60
2018-12-16T01:29:36.331Z,22.30
2018-12-16T01:32:04.644Z,23.60
2018-12-16T01:34:33.015Z,22.77
2018-12-16T01:37:01.247Z,24.67
2018-12-16T01:39:29.489Z,22.10
2018-12-16T01:41:57.721Z,23.70
2018-12-16T01:44:25.987Z,23.70
2018-12-16T01:46:54.229Z,20.50
2018-12-16T01:49:22.502Z,21.37
2018-12-16T01:51:50.758Z,22.53
2018-12-16T01:54:19.009Z,23.03
2018-12-16T01:56:47.313Z,23.33
2018-12-16T01:59:15.538Z,21.37
2018-12-16T02:01:49.146Z,22.90
2018-12-16T02:04:17.394Z,22.97
2018-12-16T02:06:45.712Z,23.77
2018-12-16T02:09:13.939Z,23.27
2018-12-16T02:11:42.197Z,23.27
2018-12-16T02:14:10.456Z,24.50
2018-12-16T02:16:38.674Z,24.10
2018-12-16T02:19:06.979Z,22.93
2018-12-16T02:21:35.374Z,21.83
2018-12-16T02:24:03.609Z,23.40
2018-12-16T02:26:31.834Z,21.67
2018-12-16T02:29:00.072Z,23.70
2018-12-16T02:31:28.322Z,22.93
2018-12-16T02:33:56.560Z,22.37
2018-12-16T02:36:24.911Z,22.97
2018-12-16T02:38:53.142Z,22.10
2018-12-16T02:41:21.391Z,22.70
2018-12-16T02:43:49.697Z,21.53
2018-12-16T02:46:17.942Z,21.40
2018-12-16T02:48:46.166Z,22.70
2018-12-16T02:51:14.395Z,22.70
2018-12-16T02:53:42.626Z,22.50
2018-12-16T02:56:11.550Z,23.70
2018-12-16T02:58:40.311Z,24.83
2018-12-16T03:01:08.535Z,21.87
2018-12-16T03:03:36.788Z,23.57
2018-12-16T03:06:05.095Z,23.90
2018-12-16T03:08:33.411Z,21.83
2018-12-16T03:11:01.731Z,21.80
2018-12-16T03:13:29.967Z,21.77
2018-12-16T03:15:58.263Z,23.17
2018-12-16T03:18:26.504Z,24.27
2018-12-16T03:20:54.722Z,22.33
2018-12-16T03:23:22.947Z,21.40
2018-12-16T03:25:51.371Z,21.77
2018-12-16T03:28:19.602Z,24.63
2018-12-16T03:30:47.839Z,23.30
2018-12-16T03:33:16.158Z,22.57
2018-12-16T03:35:44.516Z,22.80
2018-12-16T03:38:12.843Z,23.77
2018-12-16T03:40:41.079Z,23.13
2018-12-16T03:43:09.316Z,21.63
2018-12-16T03:45:37.530Z,22.00
2018-12-16T03:48:05.794Z,22.10
2018-12-16T03:50:34.127Z,23.53
2018-12-16T03:53:02.355Z,22.73
2018-12-16T03:55:30.572Z,22.43
2018-12-16T03:57:58.796Z,24.10
2018-12-16T04:00:27.060Z,22.30
2018-12-16T04:02:55.281Z,22.70
2018-12-16T04:05:23.512Z,22.03
2018-12-16T04:07:51.828Z,21.63
2018-12-16T04:10:20.198Z,23.80
2018-12-16T04:12:48.459Z,23.03
2018-12-16T04:15:16.790Z,22.90
2018-12-16T04:17:45.026Z,23.13
2018-12-16T04:20:13.358Z,25.37
2018-12-16T04:22:41.592Z,24.30
2018-12-16T04:25:09.875Z,24.20
2018-12-16T04:27:38.110Z,24.60
2018-12-16T04:30:06.514Z,21.83
2018-12-16T04:32:35.012Z,21.80
2018-12-16T04:35:03.483Z,24.23
2018-12-16T04:37:31.724Z,22.50
2018-12-16T04:40:00.070Z,23.27
2018-12-16T04:42:28.313Z,23.33
2018-12-16T04:44:56.564Z,26.87
2018-12-16T04:47:24.792Z,25.17
2018-12-16T04:49:53.086Z,23.47
2018-12-16T04:52:21.583Z,23.53
2018-12-16T04:54:49.810Z,23.20
2018-12-16T04:57:18.041Z,23.47
2018-12-16T04:59:46.262Z,23.90
2018-12-16T05:02:14.605Z,22.57
2018-12-16T05:04:42.866Z,24.37
2018-12-16T05:07:11.183Z,24.70
2018-12-16T05:09:39.613Z,26.00
2018-12-16T05:12:07.840Z,24.97
2018-12-16T05:14:36.179Z,24.00
2018-12-16T05:17:04.522Z,24.10
2018-12-16T05:19:32.765Z,22.43
2018-12-16T05:22:01.001Z,23.50
2018-12-16T05:24:29.287Z,23.63
2018-12-16T05:26:57.634Z,24.07
2018-12-16T05:29:25.863Z,23.33
2018-12-16T05:31:54.093Z,24.03
2018-12-16T05:34:22.423Z,25.17
2018-12-16T05:36:50.637Z,22.67
2018-12-16T05:39:18.872Z,25.20
2018-12-16T05:41:47.121Z,23.17
2018-12-16T05:44:15.355Z,24.67
2018-12-16T05:46:43.696Z,23.53
2018-12-16T05:49:11.994Z,23.57
2018-12-16T05:51:40.222Z,25.63
2018-12-16T05:54:08.457Z,23.37
2018-12-16T05:56:36.703Z,23.20
2018-12-16T05:59:04.925Z,23.97
2018-12-16T06:01:33.173Z,22.97
2018-12-16T06:04:01.442Z,22.67
2018-12-16T06:06:30.013Z,24.97
2018-12-16T06:08:58.233Z,23.33
2018-12-16T06:11:26.454Z,24.67
2018-12-16T06:13:54.736Z,23.50
2018-12-16T06:16:23.237Z,23.43
2018-12-16T06:18:51.550Z,24.37
2018-12-16T06:21:19.955Z,23.93
2018-12-16T06:23:48.292Z,24.23
2018-12-16T06:26:16.543Z,22.27
2018-12-16T06:28:44.771Z,21.27
2018-12-16T06:31:13.089Z,23.33
2018-12-16T06:33:41.455Z,25.37
2018-12-16T06:36:09.675Z,24.50
2018-12-16T06:38:38.158Z,24.50
2018-12-16T06:41:06.401Z,24.30
2018-12-16T06:43:34.662Z,24.17
2018-12-16T06:46:02.906Z,24.47
2018-12-16T06:48:31.146Z,25.93
2018-12-16T06:50:59.434Z,24.17
2018-12-16T06:53:27.661Z,24.23
2018-12-16T06:55:56.077Z,23.33
2018-12-16T06:58:24.446Z,23.83
2018-12-16T07:00:52.723Z,23.40
2018-12-16T07:03:21.015Z,23.23
2018-12-16T07:05:49.306Z,24.90
2018-12-16T07:08:17.639Z,23.40
2018-12-16T07:10:45.866Z,24.37
2018-12-16T07:13:14.164Z,23.80
2018-12-16T07:15:42.387Z,24.10
2018-12-16T07:18:10.670Z,22.67
2018-12-16T07:20:38.986Z,23.37
2018-12-16T07:23:07.259Z,23.87
2018-12-16T07:25:35.512Z,26.43
2018-12-16T07:28:03.767Z,24.33
2018-12-16T07:30:32.133Z,21.20
2018-12-16T07:33:00.454Z,24.17
2018-12-16T07:35:28.774Z,25.57
2018-12-16T07:37:56.992Z,24.87
2018-12-16T07:40:25.303Z,25.00
2018-12-16T07:42:53.717Z,24.13
2018-12-16T07:45:22.029Z,23.47
2018-12-16T07:47:50.283Z,24.47
2018-12-16T07:50:18.764Z,26.70
2018-12-16T07:52:47.054Z,25.47
2018-12-16T07:55:15.865Z,23.30
2018-12-16T07:57:44.206Z,25.87
2018-12-16T08:00:12.638Z,26.13
2018-12-16T08:02:41.005Z,23.27
2018-12-16T08:05:09.422Z,25.60
2018-12-16T08:07:37.712Z,23.47
2018-12-16T08:10:06.035Z,24.10
2018-12-16T08:12:34.376Z,24.60
2018-12-16T08:15:02.650Z,24.80
2018-12-16T08:17:30.972Z,25.13
2018-12-16T08:19:59.208Z,27.27
2018-12-16T08:22:27.458Z,27.60
2018-12-16T08:24:55.882Z,24.67
2018-12-16T08:27:24.203Z,27.57
2018-12-16T08:29:52.549Z,27.40
2018-12-16T08:32:20.814Z,26.80
2018-12-16T08:34:49.078Z,25.83
2018-12-16T08:37:17.329Z,23.70
2018-12-16T08:39:45.776Z,24.67
2018-12-16T08:42:14.010Z,23.93
2018-12-16T08:44:42.411Z,26.43
2018-12-16T08:47:10.750Z,25.70
2018-12-16T08:49:39.016Z,24.20
2018-12-16T08:52:07.322Z,24.40
2018-12-16T08:54:35.602Z,24.10
2018-12-16T08:57:03.944Z,25.00
2018-12-16T08:59:32.174Z,24.43
2018-12-16T09:02:00.435Z,26.50
2018-12-16T09:04:28.823Z,26.83
2018-12-16T09:06:57.144Z,26.97
2018-12-16T09:09:25.697Z,25.23
2018-12-16T09:11:54.084Z,25.77
2018-12-16T09:14:22.430Z,24.87
2018-12-16T09:16:50.813Z,26.87
2018-12-16T09:19:19.077Z,24.47
2018-12-16T09:21:47.375Z,26.30
2018-12-16T09:24:15.597Z,24.43
2018-12-16T09:26:43.888Z,24.57
2018-12-16T09:29:12.134Z,22.73
2018-12-16T09:31:40.430Z,22.77
2018-12-16T09:34:08.680Z,24.60
2018-12-16T09:36:36.953Z,24.00
2018-12-16T09:39:07.457Z,24.77
2018-12-16T09:41:35.777Z,24.83
2018-12-16T09:44:04.194Z,23.50
2018-12-16T09:46:32.490Z,25.00
2018-12-16T09:49:00.742Z,23.70
2018-12-16T09:51:29.166Z,24.90
2018-12-16T09:53:57.583Z,25.73
2018-12-16T09:56:25.988Z,23.57
2018-12-16T09:58:55.137Z,22.83
2018-12-16T10:01:23.388Z,27.50
2018-12-16T10:03:51.695Z,26.93
2018-12-16T10:06:20.006Z,26.53
2018-12-16T10:08:48.264Z,23.87
2018-12-16T10:11:16.542Z,25.10
2018-12-16T10:13:44.815Z,25.77
2018-12-16T10:16:13.075Z,26.33
2018-12-16T10:18:41.399Z,25.40
2018-12-16T10:21:09.655Z,24.17
2018-12-16T10:23:37.999Z,24.00
2018-12-16T10:26:06.267Z,24.13
2018-12-16T10:28:34.543Z,23.60
2018-12-16T10:31:02.788Z,24.43
2018-12-16T10:33:31.113Z,23.47
2018-12-16T10:35:59.392Z,23.27
2018-12-16T10:38:27.635Z,24.37
2018-12-16T10:40:56.009Z,21.50
2018-12-16T10:43:24.293Z,22.77
2018-12-16T10:45:52.583Z,21.70
2018-12-16T10:48:20.823Z,21.80
2018-12-16T10:50:49.118Z,22.50
2018-12-16T10:53:17.354Z,27.27
2018-12-16T10:55:45.685Z,25.57
2018-12-16T10:58:14.019Z,22.37
2018-12-16T11:01:46.066Z,22.13
2018-12-16T11:04:14.292Z,20.80
2018-12-16T11:06:42.534Z,22.90
2018-12-16T11:09:10.895Z,23.50
2018-12-16T11:11:39.255Z,20.17
2018-12-16T11:14:07.515Z,21.37
2018-12-16T11:16:35.743Z,22.50
2018-12-16T11:19:04.086Z,20.97
2018-12-16T11:21:32.382Z,23.03
2018-12-16T11:24:00.753Z,22.37
2018-12-16T11:26:28.982Z,21.77
2018-12-16T11:28:57.223Z,27.13
2018-12-16T11:31:25.520Z,29.63
2018-12-16T11:33:53.930Z,26.77
2018-12-16T11:36:22.209Z,25.20
2018-12-16T11:38:50.432Z,25.13
2018-12-16T11:41:19.061Z,24.10
2018-12-16T11:43:47.383Z,24.90
2018-12-16T11:46:15.662Z,22.03
2018-12-16T11:48:43.927Z,23.20
2018-12-16T11:51:12.617Z,21.40
2018-12-16T11:53:40.965Z,24.00
2018-12-16T11:56:09.269Z,22.40
2018-12-16T11:58:37.647Z,23.73
2018-12-16T12:01:06.508Z,22.17
2018-12-16T12:03:34.800Z,25.67
2018-12-16T12:06:03.137Z,24.20
2018-12-16T12:08:31.383Z,21.77
2018-12-16T12:10:59.788Z,22.07
2018-12-16T12:13:29.130Z,20.97
2018-12-16T12:15:57.423Z,22.20
2018-12-16T12:18:25.829Z,20.43
2018-12-16T12:20:54.181Z,21.27
2018-12-16T12:23:22.483Z,21.67
2018-12-16T12:25:50.854Z,21.40
2018-12-16T12:28:19.444Z,20.37
2018-12-16T12:30:47.711Z,19.77
2018-12-16T12:33:16.554Z,19.13
2018-12-16T12:35:44.889Z,20.77
2018-12-16T12:38:13.146Z,20.60
2018-12-16T12:40:42.171Z,19.67
2018-12-16T12:43:10.407Z,18.40
2018-12-16T12:45:38.759Z,20.00
2018-12-16T12:48:07.049Z,18.50
2018-12-16T12:50:35.355Z,17.97
2018-12-16T12:53:03.726Z,19.03
2018-12-16T12:55:32.113Z,18.57
2018-12-16T12:58:00.503Z,19.37
2018-12-16T13:00:28.782Z,17.20
2018-12-16T13:02:57.136Z,18.93
2018-12-16T13:05:25.407Z,17.30
2018-12-16T13:07:53.778Z,17.87
2018-12-16T13:10:22.025Z,18.50
2018-12-16T13:12:50.404Z,18.47
2018-12-16T13:15:18.622Z,18.30
2018-12-16T13:17:47.009Z,17.00
2018-12-16T13:20:15.296Z,17.03
2018-12-16T13:22:43.666Z,17.87
2018-12-16T13:25:23.348Z,17.00
2018-12-16T13:27:51.626Z,17.00
2018-12-16T13:30:19.918Z,17.83
2018-12-16T13:32:48.199Z,19.20
2018-12-16T13:35:16.751Z,15.93
2018-12-16T13:37:44.980Z,16.10
2018-12-16T13:40:13.279Z,17.60
2018-12-16T13:42:41.542Z,15.80
2018-12-16T13:45:10.496Z,17.73
2018-12-16T13:47:38.986Z,17.40
2018-12-16T13:50:08.920Z,18.50
2018-12-16T13:52:37.902Z,16.03
2018-12-16T13:55:07.106Z,16.60
2018-12-16T13:57:36.266Z,16.33
2018-12-16T14:00:05.704Z,15.30
2018-12-16T14:02:33.973Z,17.10
2018-12-16T14:05:02.218Z,17.80
2018-12-16T14:07:30.478Z,14.77
2018-12-16T14:09:59.123Z,15.50
2018-12-16T14:12:27.586Z,17.87
2018-12-16T14:14:55.925Z,19.10
2018-12-16T14:17:24.310Z,17.30
2018-12-16T14:19:52.741Z,18.13
2018-12-16T14:22:21.034Z,18.20
2018-12-16T14:24:49.349Z,16.80
2018-12-16T14:27:17.610Z,18.40
2018-12-16T14:29:46.002Z,18.00
2018-12-16T14:32:14.220Z,16.90
2018-12-16T14:34:42.500Z,18.00
2018-12-16T14:37:10.829Z,18.20
2018-12-16T14:39:39.043Z,17.10
2018-12-16T14:42:07.311Z,17.03
2018-12-16T14:44:35.586Z,19.73
2018-12-16T14:47:03.899Z,17.20
2018-12-16T14:49:32.166Z,18.87
2018-12-16T14:52:00.433Z,19.60
2018-12-16T14:54:28.667Z,17.70
2018-12-16T14:56:56.919Z,19.00
2018-12-16T14:59:25.167Z,17.20
2018-12-16T15:01:53.513Z,16.80
2018-12-16T15:04:21.790Z,18.17
2018-12-16T15:06:50.096Z,19.00
2018-12-16T15:09:18.343Z,18.17
2018-12-16T15:11:46.677Z,19.03
2018-12-16T15:14:15.025Z,17.97
2018-12-16T15:16:43.270Z,18.63
2018-12-16T15:19:11.525Z,18.37
2018-12-16T15:21:39.945Z,18.10
2018-12-16T15:24:08.261Z,18.87
2018-12-16T15:26:36.649Z,20.13
2018-12-16T15:29:05.092Z,18.90
2018-12-16T15:31:33.694Z,20.70
2018-12-16T15:34:02.040Z,20.10
2018-12-16T15:36:30.300Z,19.70
2018-12-16T15:38:58.593Z,19.50
2018-12-16T15:41:27.033Z,19.63
2018-12-16T15:43:55.339Z,18.83
2018-12-16T15:46:23.658Z,20.60
2018-12-16T15:48:52.349Z,20.60
2018-12-16T15:51:21.001Z,22.20
2018-12-16T15:53:49.345Z,20.37
2018-12-16T15:56:17.795Z,20.20
2018-12-16T15:58:46.274Z,20.70
2018-12-16T16:01:14.922Z,20.57
2018-12-16T16:03:43.474Z,19.80
2018-12-16T16:06:11.802Z,21.30
2018-12-16T16:08:40.022Z,21.50
2018-12-16T16:11:08.366Z,20.17
2018-12-16T16:13:36.666Z,21.60
2018-12-16T16:16:05.015Z,22.70
2018-12-16T16:18:33.283Z,21.20
2018-12-16T16:21:01.747Z,21.17
2018-12-16T16:23:29.990Z,21.53
2018-12-16T16:25:58.208Z,22.73
2018-12-16T16:28:27.162Z,22.80
2018-12-16T16:30:56.148Z,21.00
2018-12-16T16:33:24.424Z,21.93
2018-12-16T16:35:53.323Z,22.97
2018-12-16T16:38:21.739Z,21.60
2018-12-16T16:40:50.634Z,22.33
2018-12-16T16:43:18.862Z,23.17
2018-12-16T16:45:47.142Z,22.60
2018-12-16T16:48:15.391Z,22.00
2018-12-16T16:50:43.711Z,21.67
2018-12-16T16:53:12.056Z,22.87
2018-12-16T16:55:40.470Z,22.70
2018-12-16T16:58:08.895Z,22.60
2018-12-16T17:00:37.246Z,22.33
2018-12-16T17:03:05.494Z,23.00
2018-12-16T17:05:33.710Z,23.77
2018-12-16T17:08:02.074Z,22.93
2018-12-16T17:10:30.298Z,25.80
2018-12-16T17:12:58.592Z,23.57
2018-12-16T17:15:27.058Z,22.27
2018-12-16T17:17:56.536Z,22.80
2018-12-16T17:20:25.106Z,24.43
2018-12-16T17:22:53.415Z,25.50
2018-12-16T17:25:21.761Z,23.50
2018-12-16T17:27:50.006Z,23.40
2018-12-16T17:30:18.576Z,26.17
2018-12-16T17:32:46.831Z,24.00
2018-12-16T17:35:15.152Z,23.80
2018-12-16T17:37:43.369Z,25.60
2018-12-16T17:40:11.775Z,24.17
2018-12-16T17:42:40.097Z,24.73
2018-12-16T17:45:08.953Z,25.30
2018-12-16T17:47:37.286Z,25.37
2018-12-16T17:50:05.691Z,22.83
2018-12-16T17:52:33.976Z,23.87
2018-12-16T17:55:02.323Z,24.87
2018-12-16T17:57:30.645Z,22.03
2018-12-16T18:00:06.688Z,22.07
2018-12-16T18:02:34.944Z,23.47
2018-12-16T18:05:03.363Z,23.37
2018-12-16T18:07:31.607Z,22.43
2018-12-16T18:09:59.867Z,25.20
2018-12-16T18:12:28.139Z,22.47
2018-12-16T18:14:56.409Z,21.10
2018-12-16T18:17:24.760Z,22.63
2018-12-16T18:19:53.013Z,20.63
2018-12-16T18:22:21.241Z,20.63
2018-12-16T18:24:49.474Z,23.73
2018-12-16T18:27:17.720Z,20.43
2018-12-16T18:29:45.961Z,22.63
2018-12-16T18:32:14.358Z,21.20
2018-12-16T18:34:42.590Z,22.13
2018-12-16T18:37:11.007Z,23.47
2018-12-16T18:39:39.277Z,21.57
2018-12-16T18:42:07.926Z,24.27
2018-12-16T18:44:36.193Z,22.93
2018-12-16T18:47:04.609Z,22.63
2018-12-16T18:49:33.758Z,21.37
2018-12-16T18:52:02.052Z,22.60
2018-12-16T18:54:30.376Z,22.60
2018-12-16T18:56:58.690Z,19.80
2018-12-16T18:59:26.918Z,22.83
2018-12-16T19:01:55.327Z,20.90
2018-12-16T19:04:23.550Z,21.00
2018-12-16T19:06:51.860Z,19.37
2018-12-16T19:09:22.973Z,20.40
2018-12-16T19:11:51.239Z,21.63
2018-12-16T19:14:20.172Z,21.47
2018-12-16T19:16:48.413Z,19.90
2018-12-16T19:19:17.135Z,21.33
2018-12-16T19:21:45.398Z,20.47
2018-12-16T19:24:13.633Z,19.20
2018-12-16T19:26:41.882Z,20.73
2018-12-16T19:29:11.154Z,19.90
2018-12-16T19:31:39.415Z,20.70
2018-12-16T19:34:07.772Z,20.47
2018-12-16T19:36:36.187Z,19.00
2018-12-16T19:39:06.637Z,20.60
2018-12-16T19:41:34.946Z,20.50
2018-12-16T19:44:03.195Z,22.43
2018-12-16T19:46:31.450Z,20.80
2018-12-16T19:48:59.777Z,21.00
2018-12-16T19:51:28.025Z,21.53
2018-12-16T19:53:56.282Z,21.00
2018-12-16T19:56:24.557Z,22.67
2018-12-16T19:58:53.490Z,21.30
2018-12-16T20:01:21.722Z,21.83
2018-12-16T20:03:55.408Z,23.97
2018-12-16T20:06:29.065Z,22.00
2018-12-16T20:08:57.356Z,20.80
2018-12-16T20:11:25.622Z,23.50
2018-12-16T20:13:53.916Z,23.70
2018-12-16T20:16:22.373Z,24.53
2018-12-16T20:18:50.753Z,22.73
2018-12-16T20:21:19.015Z,23.87
2018-12-16T20:23:47.319Z,25.40
2018-12-16T20:26:15.595Z,26.20
2018-12-16T20:28:43.882Z,26.37
2018-12-16T20:31:12.152Z,28.10
2018-12-16T20:33:40.444Z,27.43
2018-12-16T20:36:08.701Z,28.77
2018-12-16T20:38:37.189Z,28.90
2018-12-16T20:41:06.096Z,29.83
2018-12-16T20:43:34.781Z,31.30
2018-12-16T20:46:03.817Z,30.70
2018-12-16T20:48:32.179Z,29.90
2018-12-16T20:51:00.493Z,29.53
2018-12-16T20:53:28.718Z,29.23
2018-12-16T20:55:57.046Z,31.57
2018-12-16T20:58:25.310Z,27.73
2018-12-16T21:00:53.619Z,28.63
2018-12-16T21:03:22.946Z,28.30
2018-12-16T21:05:51.251Z,27.93
2018-12-16T21:08:19.606Z,29.37
2018-12-16T21:10:47.878Z,30.50
2018-12-16T21:13:21.486Z,27.93
2018-12-16T21:15:55.092Z,26.80
2018-12-16T21:18:28.109Z,27.40
2018-12-16T21:20:56.331Z,27.23
2018-12-16T21:23:24.582Z,27.43
2018-12-16T21:25:52.908Z,26.10
2018-12-16T21:28:21.178Z,27.63
2018-12-16T21:30:49.594Z,24.27
2018-12-16T21:33:17.878Z,25.53
2018-12-16T21:35:46.166Z,25.20
2018-12-16T21:38:14.447Z,23.77
2018-12-16T21:40:42.679Z,23.63
2018-12-16T21:43:11.074Z,24.80
2018-12-16T21:45:39.303Z,24.30
2018-12-16T21:48:07.543Z,25.00
2018-12-16T21:50:35.809Z,25.30
2018-12-16T21:53:04.148Z,24.23
2018-12-16T21:55:32.398Z,24.27
2018-12-16T21:58:00.631Z,23.60
2018-12-16T22:00:29.088Z,23.63
2018-12-16T22:02:57.309Z,26.87
2018-12-16T22:05:30.108Z,23.10
2018-12-16T22:07:58.626Z,25.57
2018-12-16T22:10:26.840Z,25.80
2018-12-16T22:12:55.082Z,23.63
2018-12-16T22:15:23.453Z,24.63
2018-12-16T22:17:51.773Z,25.70
2018-12-16T22:20:20.022Z,23.33
2018-12-16T22:22:48.284Z,26.10
2018-12-16T22:25:16.525Z,25.00
2018-12-16T22:27:44.762Z,24.93
2018-12-16T22:30:13.019Z,24.43
2018-12-16T22:32:41.287Z,24.40
2018-12-16T22:35:10.282Z,26.93
2018-12-16T22:37:38.613Z,23.13
2018-12-16T22:40:07.662Z,24.80
2018-12-16T22:42:35.913Z,24.87
2018-12-16T22:45:05.265Z,24.17
2018-12-16T22:47:33.537Z,23.53
2018-12-16T22:50:01.895Z,21.40
2018-12-16T22:52:30.127Z,22.93
2018-12-16T22:54:58.384Z,25.43
2018-12-16T22:57:26.673Z,23.60
2018-12-16T22:59:54.893Z,24.57
2018-12-16T23:02:23.253Z,21.70
2018-12-16T23:04:51.563Z,23.30
2018-12-16T23:07:19.806Z,22.03
2018-12-16T23:09:48.055Z,19.50
2018-12-16T23:12:16.396Z,22.80
2018-12-16T23:14:44.666Z,22.27
2018-12-16T23:17:13.609Z,20.00
2018-12-16T23:19:43.829Z,20.40
2018-12-16T23:22:12.081Z,19.70
2018-12-16T23:24:40.802Z,20.67
2018-12-16T23:27:09.038Z,20.57
2018-12-16T23:29:37.266Z,19.03
2018-12-16T23:32:06.382Z,20.60
2018-12-16T23:34:34.664Z,17.27
2018-12-16T23:37:02.897Z,18.87
2018-12-16T23:39:31.134Z,20.43
2018-12-16T23:41:59.436Z,20.50
2018-12-16T23:44:27.785Z,20.00
2018-12-16T23:46:56.090Z,18.53
2018-12-16T23:49:24.364Z,19.73
2018-12-16T23:51:52.745Z,19.83
2018-12-16T23:54:20.994Z,20.07
2018-12-16T23:56:49.248Z,20.30
2018-12-16T23:59:17.466Z,19.20
